Foxfire, North Carolina
Current Conditions -  °F | °C
As of 4:15 AM on Monday 24 Nov 2014 (Local Time) from KSOP Reporting Station
Clear Clear  
Wind Chill: 61°   Ceiling: Unl
Heat Index: 61°   Visibility: 10mi
Dew Point:   Wind: 9mph
Humidity: 11%   Direction: 200°SSW
Pressure: 29.79"   Gusts: NA
Location:  35.2008°N, 79.6471°W
Report Text: KSOP 240915Z AUTO 20008KT 10SM CLR 16/M15 A2979 RMK AO1
Loading
Personal Weather Stations






























Interactive Weather Map New forecast layout! Learn more

10-Day Weather Forecast

Advertisements
Track Severe Weather on mobile